Time;durP1;ratioP1;P1;durP2;ratioP2;P2;SDS_P1;SDS_P2;PMS_P1;PMS_P2;Temp;Humidity;BMP_temperature;BMP_pressure;BME280_temperature;BME280_humidity;BME280_pressure;Samples;Min_cycle;Max_cycle;Signal;HPM_P1;HPM_P2
2022/06/25 00:01:29;;;;;;;;;;;;;;;17.41;73.35;98106.56;4213084;28;20436;-71
2022/06/25 00:03:30;;;;;;;;;;;;;;;17.44;73.24;98112.50;4214163;28;19912;-71
2022/06/25 00:05:32;;;;;;;;;;;;;;;17.39;73.81;98111.81;4215171;28;19971;-71
2022/06/25 00:07:32;;;;;;;;;;;;;;;17.39;73.33;98111.81;4216696;28;20234;-71
2022/06/25 00:09:32;;;;;;;;;;;;;;;17.39;73.44;98120.22;4208570;28;20007;-71
2022/06/25 00:13:52;;;;;;;;;;;;;;;17.42;72.81;98110.16;4209248;28;20023;-71
2022/06/25 00:15:52;;;;;;;;;;;;;;;17.39;73.41;98100.63;4211880;28;20630;-71
2022/06/25 00:17:52;;;;;;;;;;;;;;;17.39;73.23;98111.03;4215031;28;19959;-71
2022/06/25 00:19:52;;;;;;;;;;;;;;;17.37;73.07;98110.66;4209244;28;20403;-71
2022/06/25 00:21:53;;;;;;;;;;;;;;;17.35;73.38;98119.47;4212245;28;19919;-71
2022/06/25 00:23:53;;;;;;;;;;;;;;;17.31;73.77;98112.41;4218047;28;20003;-71
2022/06/25 00:25:53;;;;;;;;;;;;;;;17.31;73.64;98118.00;4214038;28;19986;-71
2022/06/25 00:27:54;;;;;;;;;;;;;;;17.27;74.05;98115.25;4206937;28;20423;-71
2022/06/25 00:29:54;;;;;;;;;;;;;;;17.25;74.32;98111.31;4210364;28;20298;-71
2022/06/25 00:31:54;;;;;;;;;;;;;;;17.11;75.20;98113.19;4216296;28;19916;-71
2022/06/25 00:33:54;;;;;;;;;;;;;;;17.13;75.11;98115.56;4214472;28;19963;-70
2022/06/25 00:35:55;;;;;;;;;;;;;;;17.07;75.50;98120.88;4211313;28;19961;-71
2022/06/25 00:37:55;;;;;;;;;;;;;;;17.08;75.73;98114.06;4213625;28;19973;-71
2022/06/25 00:39:55;;;;;;;;;;;;;;;17.02;75.93;98117.78;4210232;28;19967;-71
2022/06/25 00:41:55;;;;;;;;;;;;;;;16.99;75.98;98121.44;4209320;28;19912;-71
2022/06/25 00:43:55;;;;;;;;;;;;;;;17.01;76.31;98119.00;4214552;28;19927;-71
2022/06/25 00:45:56;;;;;;;;;;;;;;;17.01;76.15;98114.19;4215176;28;19915;-71
2022/06/25 00:47:56;;;;;;;;;;;;;;;17.04;77.07;98121.72;4209852;28;20380;-71
2022/06/25 00:49:56;;;;;;;;;;;;;;;17.05;77.88;98116.94;4216814;28;19918;-71
2022/06/25 00:51:57;;;;;;;;;;;;;;;17.10;77.51;98122.00;4214296;28;19970;-71
2022/06/25 00:54:02;;;;;;;;;;;;;;;17.13;77.53;98121.94;4213966;28;20291;-71
2022/06/25 00:56:04;;;;;;;;;;;;;;;17.19;77.46;98118.63;4210524;28;19916;-70
2022/06/25 00:58:06;;;;;;;;;;;;;;;17.21;77.62;98122.59;4211237;28;19948;-70
2022/06/25 01:00:08;;;;;;;;;;;;;;;17.30;76.39;98122.00;4205676;28;20045;-71
2022/06/25 01:02:09;;;;;;;;;;;;;;;17.34;77.17;98126.28;4210219;28;19915;-71
2022/06/25 01:04:09;;;;;;;;;;;;;;;17.38;77.96;98126.25;4215099;28;20084;-71
2022/06/25 01:06:09;;;;;;;;;;;;;;;17.41;77.48;98130.94;4214543;28;20024;-71
2022/06/25 01:08:10;;;;;;;;;;;;;;;17.44;77.27;98124.47;4215419;28;19973;-71
2022/06/25 01:10:13;;;;;;;;;;;;;;;17.47;77.40;98123.63;4213851;28;20428;-71
2022/06/25 01:12:13;;;;;;;;;;;;;;;17.52;77.77;98128.69;4213572;28;19973;-71
2022/06/25 01:14:14;;;;;;;;;;;;;;;17.55;77.53;98127.06;4213251;28;19920;-71
2022/06/25 01:16:14;;;;;;;;;;;;;;;17.55;77.48;98127.06;4214764;28;20295;-71
2022/06/25 01:18:14;;;;;;;;;;;;;;;17.56;77.19;98123.84;4215958;28;20265;-71
2022/06/25 01:20:15;;;;;;;;;;;;;;;17.56;77.22;98126.63;4211911;28;20411;-71
2022/06/25 01:22:16;;;;;;;;;;;;;;;17.56;77.80;98118.25;4210643;28;20530;-71
2022/06/25 01:24:16;;;;;;;;;;;;;;;17.55;78.03;98115.88;4212909;28;19920;-71
2022/06/25 01:26:16;;;;;;;;;;;;;;;17.55;78.46;98115.88;4211368;28;19915;-71
2022/06/25 01:28:16;;;;;;;;;;;;;;;17.55;78.37;98116.66;4208542;28;19923;-71
2022/06/25 01:30:16;;;;;;;;;;;;;;;17.57;78.45;98121.81;4212446;28;19923;-71
2022/06/25 01:32:17;;;;;;;;;;;;;;;17.55;78.18;98124.28;4215629;28;20367;-71
2022/06/25 01:34:17;;;;;;;;;;;;;;;17.54;78.73;98115.09;4213418;28;19927;-71
2022/06/25 01:36:18;;;;;;;;;;;;;;;17.53;78.43;98116.28;4213432;27;19916;-71
2022/06/25 01:38:18;;;;;;;;;;;;;;;17.51;78.94;98117.94;4212747;28;19916;-71
2022/06/25 01:40:18;;;;;;;;;;;;;;;17.52;78.98;98111.91;4212841;28;19958;-71
2022/06/25 01:44:37;;;;;;;;;;;;;;;17.53;79.25;98121.88;4212699;28;19923;-71
2022/06/25 01:46:38;;;;;;;;;;;;;;;17.52;78.73;98116.72;4213957;28;20282;-71
2022/06/25 01:48:38;;;;;;;;;;;;;;;17.54;78.90;98125.47;4211274;28;20507;-71
2022/06/25 01:50:38;;;;;;;;;;;;;;;17.43;79.62;98125.72;4210878;28;19920;-71
2022/06/25 01:52:40;;;;;;;;;;;;;;;17.42;79.74;98122.13;4213971;28;19924;-70
2022/06/25 01:54:40;;;;;;;;;;;;;;;17.39;79.76;98125.78;4215880;28;19924;-71
2022/06/25 01:56:40;;;;;;;;;;;;;;;17.35;80.51;98119.47;4217956;28;20256;-71
2022/06/25 01:58:40;;;;;;;;;;;;;;;17.34;80.85;98120.69;4213562;28;20316;-71
2022/06/25 02:00:41;;;;;;;;;;;;;;;17.29;80.97;98118.41;4214048;28;19915;-71
2022/06/25 02:02:41;;;;;;;;;;;;;;;17.29;80.87;98124.00;4208363;28;20078;-71
2022/06/25 02:04:42;;;;;;;;;;;;;;;17.29;81.37;98131.59;4214186;28;20195;-71
2022/06/25 02:06:42;;;;;;;;;;;;;;;17.28;81.68;98128.00;4213485;28;20271;-71
2022/06/25 02:08:42;;;;;;;;;;;;;;;17.25;81.23;98126.09;4215372;28;19971;-71
2022/06/25 02:10:44;;;;;;;;;;;;;;;17.23;82.03;98127.75;4216982;28;19915;-71
2022/06/25 02:12:44;;;;;;;;;;;;;;;17.22;81.79;98128.97;4212006;28;20312;-71
2022/06/25 02:14:45;;;;;;;;;;;;;;;17.20;82.28;98129.38;4211138;28;19962;-71
2022/06/25 02:16:45;;;;;;;;;;;;;;;17.23;82.00;98131.34;4209440;28;19927;-71
2022/06/25 02:18:45;;;;;;;;;;;;;;;17.27;81.12;98123.66;4211002;28;19925;-71
2022/06/25 02:20:46;;;;;;;;;;;;;;;17.32;80.34;98127.94;4212362;28;19916;-71
2022/06/25 02:22:46;;;;;;;;;;;;;;;17.33;81.64;98135.91;4215501;28;20338;-71
2022/06/25 02:24:46;;;;;;;;;;;;;;;17.35;81.84;98135.47;4211569;28;19916;-71
2022/06/25 02:26:46;;;;;;;;;;;;;;;17.41;81.68;98144.94;4210141;28;20199;-71
2022/06/25 02:28:47;;;;;;;;;;;;;;;17.39;81.92;98145.38;4212567;28;19917;-71
2022/06/25 02:30:47;;;;;;;;;;;;;;;17.37;82.08;98145.00;4211743;28;19916;-71
2022/06/25 02:32:47;;;;;;;;;;;;;;;17.38;82.10;98160.56;4211411;28;20236;-71
2022/06/25 02:34:48;;;;;;;;;;;;;;;17.41;81.54;98158.91;4211112;28;19922;-71
2022/06/25 02:36:50;;;;;;;;;;;;;;;17.40;81.18;98155.34;4213300;28;20011;-71
2022/06/25 02:38:51;;;;;;;;;;;;;;;17.39;80.01;98164.16;4212013;28;19922;-71
2022/06/25 02:40:52;;;;;;;;;;;;;;;17.41;80.40;98165.28;4206626;28;20014;-71
2022/06/25 02:42:52;;;;;;;;;;;;;;;17.39;80.38;98164.16;4216184;28;19973;-69
2022/06/25 02:44:52;;;;;;;;;;;;;;;17.37;81.24;98167.38;4213361;28;19955;-70
2022/06/25 02:46:52;;;;;;;;;;;;;;;17.34;81.92;98162.66;4213647;28;19920;-70
2022/06/25 02:48:52;;;;;;;;;;;;;;;17.31;82.08;98163.50;4210916;28;19912;-70
2022/06/25 02:50:53;;;;;;;;;;;;;;;17.29;82.73;98165.94;4211089;28;19916;-70
2022/06/25 02:52:53;;;;;;;;;;;;;;;17.27;83.22;98173.97;4211274;28;20372;-70
2022/06/25 02:54:53;;;;;;;;;;;;;;;17.31;83.04;98179.50;4212077;28;19927;-70
2022/06/25 02:59:13;;;;;;;;;;;;;;;17.32;81.57;98181.06;4212427;28;19926;-70
2022/06/25 03:01:13;;;;;;;;;;;;;;;17.37;82.67;98180.56;4212956;28;20006;-70
2022/06/25 03:03:14;;;;;;;;;;;;;;;17.37;83.10;98184.16;4207703;28;19920;-70
2022/06/25 03:05:14;;;;;;;;;;;;;;;17.35;82.30;98186.59;4209591;28;20019;-70
2022/06/25 03:07:14;;;;;;;;;;;;;;;17.38;81.82;98182.16;4212256;28;19920;-70
2022/06/25 03:09:15;;;;;;;;;;;;;;;17.37;82.59;98192.53;4215381;28;19920;-70
2022/06/25 03:11:15;;;;;;;;;;;;;;;17.38;82.35;98191.34;4215701;28;19915;-70
2022/06/25 03:13:15;;;;;;;;;;;;;;;17.34;81.96;98196.19;4211177;28;19915;-70
2022/06/25 03:15:16;;;;;;;;;;;;;;;17.31;83.47;98199.88;4214214;28;19916;-70
2022/06/25 03:17:16;;;;;;;;;;;;;;;17.29;83.32;98201.50;4208541;28;20011;-70
2022/06/25 03:19:16;;;;;;;;;;;;;;;17.28;82.16;98195.13;4209017;28;19920;-70
2022/06/25 03:21:16;;;;;;;;;;;;;;;17.30;81.29;98195.50;4211066;28;19920;-70
2022/06/25 03:23:17;;;;;;;;;;;;;;;17.30;83.15;98203.88;4209078;28;20290;-70
2022/06/25 03:25:17;;;;;;;;;;;;;;;17.29;83.32;98205.06;4213162;28;20379;-70
2022/06/25 03:27:17;;;;;;;;;;;;;;;17.28;83.42;98202.72;4211175;28;19916;-71
2022/06/25 03:29:17;;;;;;;;;;;;;;;17.27;82.15;98207.53;4205961;28;20486;-70
2022/06/25 03:31:18;;;;;;;;;;;;;;;17.27;83.30;98204.72;4211217;28;19967;-70
2022/06/25 03:33:18;;;;;;;;;;;;;;;17.30;81.66;98209.47;4210663;28;20123;-70
2022/06/25 03:35:18;;;;;;;;;;;;;;;17.35;81.89;98208.97;4212630;28;20042;-71
2022/06/25 03:37:18;;;;;;;;;;;;;;;17.41;82.02;98203.66;4218142;27;19920;-71
2022/06/25 03:39:19;;;;;;;;;;;;;;;17.43;82.74;98209.59;4213973;28;19920;-71
2022/06/25 03:41:37;;;;;;;;;;;;;;;17.44;82.62;98222.38;4215739;28;19934;-71
2022/06/25 03:43:38;;;;;;;;;;;;;;;17.48;81.70;98222.31;4216763;28;20071;-71
2022/06/25 03:45:38;;;;;;;;;;;;;;;17.54;81.93;98223.38;4216502;28;19915;-71
2022/06/25 03:47:38;;;;;;;;;;;;;;;17.56;82.36;98221.72;4215153;28;20372;-71
2022/06/25 03:49:39;;;;;;;;;;;;;;;17.62;82.28;98222.78;4214630;28;19922;-71
2022/06/25 03:51:39;;;;;;;;;;;;;;;17.63;82.62;98226.41;4217706;28;20198;-71
2022/06/25 03:53:40;;;;;;;;;;;;;;;17.65;82.20;98235.13;4215904;28;19915;-71
2022/06/25 03:55:40;;;;;;;;;;;;;;;17.68;81.23;98231.47;4213902;28;20204;-71
2022/06/25 03:57:41;;;;;;;;;;;;;;;17.73;81.90;98231.00;4219365;28;19927;-71
2022/06/25 03:59:41;;;;;;;;;;;;;;;17.80;81.56;98230.84;4214430;28;19915;-71
2022/06/25 04:01:41;;;;;;;;;;;;;;;17.82;81.53;98227.63;4213824;28;19916;-71
2022/06/25 04:03:42;;;;;;;;;;;;;;;17.84;81.54;98231.56;4214989;28;20003;-71
2022/06/25 04:05:42;;;;;;;;;;;;;;;17.90;81.87;98231.84;4213313;28;19974;-71
2022/06/25 04:07:42;;;;;;;;;;;;;;;17.87;82.03;98236.31;4214500;28;19924;-71
2022/06/25 04:09:43;;;;;;;;;;;;;;;17.88;81.00;98231.50;4217274;28;20015;-71
2022/06/25 04:11:43;;;;;;;;;;;;;;;17.89;81.11;98230.28;4217926;28;19916;-71
2022/06/25 04:13:43;;;;;;;;;;;;;;;17.89;81.69;98236.66;4208440;28;19920;-71
2022/06/25 04:15:43;;;;;;;;;;;;;;;17.90;81.10;98241.03;4217697;28;20426;-71
2022/06/25 04:17:44;;;;;;;;;;;;;;;17.93;81.31;98239.38;4218030;28;20010;-71
2022/06/25 04:19:44;;;;;;;;;;;;;;;17.91;81.78;98241.81;4213281;28;19923;-71
2022/06/25 04:21:47;;;;;;;;;;;;;;;17.92;81.03;98244.16;4215119;28;20003;-71
2022/06/25 04:23:47;;;;;;;;;;;;;;;17.94;81.20;98243.72;4215551;28;20379;-71
2022/06/25 04:25:48;;;;;;;;;;;;;;;17.95;80.98;98250.91;4215560;28;19916;-71
2022/06/25 04:30:07;;;;;;;;;;;;;;;17.98;80.83;98250.06;4211053;28;19970;-71
2022/06/25 04:32:07;;;;;;;;;;;;;;;17.96;82.02;98241.31;4206634;28;19916;-71
2022/06/25 04:34:07;;;;;;;;;;;;;;;17.95;81.90;98240.50;4208824;28;19920;-71
2022/06/25 04:36:07;;;;;;;;;;;;;;;17.95;81.81;98251.69;4214035;28;19919;-71
2022/06/25 04:38:08;;;;;;;;;;;;;;;17.95;81.86;98253.69;4212998;28;19923;-71
2022/06/25 04:40:08;;;;;;;;;;;;;;;17.95;81.80;98257.28;4218837;28;19920;-71
2022/06/25 04:42:09;;;;;;;;;;;;;;;17.90;82.09;98252.22;4213252;28;21027;-71
2022/06/25 04:44:09;;;;;;;;;;;;;;;17.92;82.03;98260.19;4218431;28;19972;-71
2022/06/25 04:46:09;;;;;;;;;;;;;;;17.90;82.00;98259.84;4206378;28;19928;-71
2022/06/25 04:48:09;;;;;;;;;;;;;;;17.89;81.86;98256.25;4207987;28;20015;-71
2022/06/25 04:50:10;;;;;;;;;;;;;;;17.87;82.20;98271.88;4213427;28;20450;-71
2022/06/25 04:52:10;;;;;;;;;;;;;;;17.87;82.23;98267.09;4212919;28;20156;-71
2022/06/25 04:54:10;;;;;;;;;;;;;;;17.87;82.60;98261.50;4213334;28;19919;-71
2022/06/25 04:56:10;;;;;;;;;;;;;;;17.84;82.89;98270.72;4214123;28;19970;-71
2022/06/25 04:58:11;;;;;;;;;;;;;;;17.87;82.36;98269.06;4211984;28;19959;-71
2022/06/25 05:00:11;;;;;;;;;;;;;;;17.86;82.55;98268.28;4213878;28;19920;-71
2022/06/25 05:02:12;;;;;;;;;;;;;;;17.88;82.66;98267.88;4210302;28;19916;-71
2022/06/25 05:04:12;;;;;;;;;;;;;;;17.88;82.76;98273.47;4208136;28;20023;-71
2022/06/25 05:06:13;;;;;;;;;;;;;;;17.89;82.72;98267.44;4213394;28;19920;-71
2022/06/25 05:08:13;;;;;;;;;;;;;;;17.87;83.43;98281.09;4212232;28;19924;-71
2022/06/25 05:10:13;;;;;;;;;;;;;;;17.89;83.09;98284.22;4211093;28;19923;-71
2022/06/25 05:13:11;;;;;;;;;;;;;;;17.92;82.97;98286.16;4211450;28;20411;-71
2022/06/25 05:14:34;;;;;;;;;;;;;;;17.95;82.90;98285.28;4214731;28;19912;-71
2022/06/25 05:16:34;;;;;;;;;;;;;;;18.04;83.22;98281.09;4212510;28;19912;-71
2022/06/25 05:18:34;;;;;;;;;;;;;;;18.01;82.50;98290.38;4209593;28;19919;-71
2022/06/25 05:20:38;;;;;;;;;;;;;;;17.99;83.15;98288.03;4214686;28;19965;-71
2022/06/25 05:22:38;;;;;;;;;;;;;;;18.01;82.91;98281.97;4210573;28;19924;-71
2022/06/25 05:24:38;;;;;;;;;;;;;;;18.01;82.96;98291.16;4207030;28;20076;-71
2022/06/25 05:26:38;;;;;;;;;;;;;;;18.07;82.86;98288.66;4210397;28;20671;-71
2022/06/25 05:28:39;;;;;;;;;;;;;;;18.10;82.77;98291.38;4205242;28;19966;-71
2022/06/25 05:30:40;;;;;;;;;;;;;;;18.19;82.09;98293.59;4210781;28;19939;-71
2022/06/25 05:32:40;;;;;;;;;;;;;;;18.22;82.18;98293.53;4208943;28;19915;-71
2022/06/25 05:34:41;;;;;;;;;;;;;;;18.27;81.76;98286.59;4207469;28;20404;-71
2022/06/25 05:36:42;;;;;;;;;;;;;;;18.33;81.93;98296.06;4209583;27;19968;-71
2022/06/25 05:38:42;;;;;;;;;;;;;;;18.36;80.88;98300.78;4210109;28;19915;-71
2022/06/25 05:40:43;;;;;;;;;;;;;;;18.42;80.63;98293.47;4207293;28;19927;-71
2022/06/25 05:42:43;;;;;;;;;;;;;;;18.49;79.06;98298.91;4207602;28;19916;-71
2022/06/25 05:44:43;;;;;;;;;;;;;;;18.49;80.71;98301.69;4210036;28;19916;-71
2022/06/25 05:46:44;;;;;;;;;;;;;;;18.53;80.08;98296.81;4209110;28;20550;-71
2022/06/25 05:48:45;;;;;;;;;;;;;;;18.52;79.89;98300.81;4208238;28;19944;-71
2022/06/25 05:50:45;;;;;;;;;;;;;;;18.56;80.53;98299.97;4206992;28;20682;-71
2022/06/25 05:52:45;;;;;;;;;;;;;;;18.56;80.91;98305.56;4206952;28;19916;-71
2022/06/25 05:54:45;;;;;;;;;;;;;;;18.57;79.98;98302.31;4210536;28;19920;-71
2022/06/25 05:56:46;;;;;;;;;;;;;;;18.60;79.88;98306.25;4209118;28;19967;-71
2022/06/25 05:58:46;;;;;;;;;;;;;;;18.64;79.30;98304.97;4207378;28;19955;-71
2022/06/25 06:00:46;;;;;;;;;;;;;;;18.65;79.45;98302.94;4206686;28;19920;-71
2022/06/25 06:02:47;;;;;;;;;;;;;;;18.66;79.42;98305.34;4207014;28;20256;-71
2022/06/25 06:04:47;;;;;;;;;;;;;;;18.72;79.45;98308.41;4207538;28;20336;-71
2022/06/25 06:06:47;;;;;;;;;;;;;;;18.73;79.50;98307.97;4208695;28;20656;-71
2022/06/25 06:08:47;;;;;;;;;;;;;;;18.77;79.03;98310.69;4206966;28;20402;-71
2022/06/25 06:10:48;;;;;;;;;;;;;;;18.83;78.91;98305.34;4206144;28;20276;-71
2022/06/25 06:12:48;;;;;;;;;;;;;;;18.92;78.61;98309.13;4207392;28;19927;-71
2022/06/25 06:14:48;;;;;;;;;;;;;;;18.95;78.45;98310.25;4208360;28;20006;-71
2022/06/25 06:16:48;;;;;;;;;;;;;;;18.98;78.31;98312.19;4192426;28;20278;-71
2022/06/25 06:18:49;;;;;;;;;;;;;;;19.01;78.15;98312.09;4207411;28;19966;-71
2022/06/25 06:20:49;;;;;;;;;;;;;;;19.08;77.33;98311.13;4208692;28;19927;-71
2022/06/25 06:22:49;;;;;;;;;;;;;;;19.16;77.48;98320.16;4207177;28;19931;-71
2022/06/25 06:24:49;;;;;;;;;;;;;;;19.21;76.92;98320.41;4205064;28;20046;-71
2022/06/25 06:26:49;;;;;;;;;;;;;;;19.29;76.31;98321.03;4206330;28;19927;-71
2022/06/25 06:28:50;;;;;;;;;;;;;;;19.38;76.16;98326.00;4205517;28;19931;-71
2022/06/25 06:30:50;;;;;;;;;;;;;;;19.41;75.60;98325.13;4207685;28;20294;-71
2022/06/25 06:32:50;;;;;;;;;;;;;;;19.47;74.96;98324.13;4208961;28;20523;-71
2022/06/25 06:34:51;;;;;;;;;;;;;;;19.53;74.33;98328.00;4205350;28;19920;-71
2022/06/25 06:36:51;;;;;;;;;;;;;;;19.57;75.04;98339.13;4210098;27;20006;-71
2022/06/25 06:38:51;;;;;;;;;;;;;;;19.63;74.36;98340.19;4208547;28;20280;-71
2022/06/25 06:40:52;;;;;;;;;;;;;;;19.63;73.88;98335.34;4205211;28;19916;-71
2022/06/25 06:42:52;;;;;;;;;;;;;;;19.64;73.88;98339.75;4208851;28;19922;-71
2022/06/25 06:44:52;;;;;;;;;;;;;;;19.73;73.75;98341.91;4207785;28;20729;-70
2022/06/25 06:46:53;;;;;;;;;;;;;;;19.82;73.14;98339.25;4208268;28;20601;-69
2022/06/25 06:48:53;;;;;;;;;;;;;;;19.86;73.34;98339.16;4206761;28;19920;-70
2022/06/25 06:50:53;;;;;;;;;;;;;;;19.89;72.93;98339.06;4208546;28;20349;-70
2022/06/25 06:52:53;;;;;;;;;;;;;;;19.91;73.42;98339.38;4206762;28;19924;-70
2022/06/25 06:54:53;;;;;;;;;;;;;;;19.97;72.83;98336.81;4205528;28;19924;-70
2022/06/25 06:56:55;;;;;;;;;;;;;;;20.06;72.66;98341.78;4207680;28;19920;-70
2022/06/25 06:58:55;;;;;;;;;;;;;;;20.15;72.79;98344.75;4208688;28;20423;-70
2022/06/25 07:00:56;;;;;;;;;;;;;;;20.17;72.26;98345.06;4207062;28;19923;-70
2022/06/25 07:02:56;;;;;;;;;;;;;;;20.24;71.66;98344.88;4208001;28;19918;-70
2022/06/25 07:04:57;;;;;;;;;;;;;;;20.34;71.58;98345.78;4206588;28;19927;-70
2022/06/25 07:06:57;;;;;;;;;;;;;;;20.36;71.08;98348.94;4207087;28;19931;-70
2022/06/25 07:08:57;;;;;;;;;;;;;;;20.24;70.34;98347.69;4208335;28;19916;-71
2022/06/25 07:10:57;;;;;;;;;;;;;;;20.28;70.27;98345.56;4208884;28;20361;-71
2022/06/25 07:12:58;;;;;;;;;;;;;;;20.29;70.97;98340.72;4209470;28;19962;-71
2022/06/25 07:14:58;;;;;;;;;;;;;;;20.22;71.08;98346.56;4209929;28;19920;-71
2022/06/25 07:16:58;;;;;;;;;;;;;;;20.31;71.14;98352.31;4210299;28;19916;-71
2022/06/25 07:18:59;;;;;;;;;;;;;;;20.44;69.84;98351.13;4209156;28;19976;-71
2022/06/25 07:20:59;;;;;;;;;;;;;;;20.45;70.12;98349.09;4213164;28;19999;-71
2022/06/25 07:22:59;;;;;;;;;;;;;;;20.51;69.42;98344.47;4208698;28;19919;-71
2022/06/25 07:25:00;;;;;;;;;;;;;;;20.62;69.06;98344.97;4212883;28;19924;-71
2022/06/25 07:27:00;;;;;;;;;;;;;;;20.73;68.59;98345.41;4209743;28;19916;-71
2022/06/25 07:29:01;;;;;;;;;;;;;;;20.95;68.37;98339.09;4211433;28;19916;-71
2022/06/25 07:31:01;;;;;;;;;;;;;;;21.02;67.87;98344.50;4215380;28;19924;-70
2022/06/25 07:33:01;;;;;;;;;;;;;;;21.14;67.85;98342.91;4214853;28;19973;-70
2022/06/25 07:35:02;;;;;;;;;;;;;;;21.28;68.11;98346.06;4212957;28;19916;-71
2022/06/25 07:37:02;;;;;;;;;;;;;;;21.30;66.43;98349.19;4210905;27;19963;-71
2022/06/25 07:39:03;;;;;;;;;;;;;;;21.36;66.67;98352.25;4212787;28;19911;-71
2022/06/25 07:41:04;;;;;;;;;;;;;;;21.42;65.52;98355.25;4215115;28;19920;-71
2022/06/25 07:43:04;;;;;;;;;;;;;;;21.39;65.98;98354.13;4215279;28;19970;-71
2022/06/25 07:45:05;;;;;;;;;;;;;;;21.39;65.99;98353.34;4218204;28;20221;-71
2022/06/25 07:47:05;;;;;;;;;;;;;;;21.38;65.58;98351.78;4209175;28;19916;-71
2022/06/25 07:49:07;;;;;;;;;;;;;;;21.44;65.98;98345.13;4213575;28;20616;-71
2022/06/25 07:53:27;;;;;;;;;;;;;;;21.39;66.11;98342.09;4210151;28;20498;-71
2022/06/25 07:55:27;;;;;;;;;;;;;;;21.43;65.30;98332.31;4214274;28;20022;-71
2022/06/25 07:57:27;;;;;;;;;;;;;;;21.52;66.47;98340.03;4220798;28;20397;-71
2022/06/25 07:59:27;;;;;;;;;;;;;;;21.58;65.79;98335.38;4209567;28;20949;-71
2022/06/25 08:01:28;;;;;;;;;;;;;;;21.51;64.98;98336.41;4217840;28;20003;-71
2022/06/25 08:03:28;;;;;;;;;;;;;;;21.61;64.91;98334.50;4215373;28;19938;-71
2022/06/25 08:05:28;;;;;;;;;;;;;;;21.67;65.31;98341.09;4211884;28;19980;-71
2022/06/25 08:07:28;;;;;;;;;;;;;;;21.77;64.87;98341.97;4209914;28;20410;-71
2022/06/25 08:09:29;;;;;;;;;;;;;;;21.82;64.86;98342.16;4210404;28;19916;-71
2022/06/25 08:11:29;;;;;;;;;;;;;;;21.86;64.86;98345.66;4214644;28;20133;-71
2022/06/25 08:13:30;;;;;;;;;;;;;;;21.87;64.79;98337.97;4218937;28;19919;-71
2022/06/25 08:15:30;;;;;;;;;;;;;;;21.91;64.51;98341.44;4213528;28;19923;-71
2022/06/25 08:17:30;;;;;;;;;;;;;;;21.81;64.78;98343.41;4209767;28;20252;-71
2022/06/25 08:19:30;;;;;;;;;;;;;;;21.80;63.65;98353.09;4212496;28;19955;-71
2022/06/25 08:21:31;;;;;;;;;;;;;;;21.70;62.52;98345.03;4218033;28;19972;-71
2022/06/25 08:23:31;;;;;;;;;;;;;;;21.84;61.70;98342.47;4211761;28;19924;-71
2022/06/25 08:25:31;;;;;;;;;;;;;;;21.72;61.06;98351.78;4213353;28;19922;-71
2022/06/25 08:27:31;;;;;;;;;;;;;;;21.58;60.95;98352.28;4215127;28;20293;-71
2022/06/25 08:29:32;;;;;;;;;;;;;;;21.62;61.17;98340.91;4212512;28;19916;-71
2022/06/25 08:31:33;;;;;;;;;;;;;;;21.79;61.63;98350.75;4214225;28;19912;-71
2022/06/25 08:33:33;;;;;;;;;;;;;;;22.02;59.96;98347.50;4210870;28;20435;-71
2022/06/25 08:35:33;;;;;;;;;;;;;;;22.15;60.06;98348.22;4214788;28;19987;-71
2022/06/25 08:37:37;;;;;;;;;;;;;;;22.14;58.38;98348.69;4212993;27;20182;-71
2022/06/25 08:39:37;;;;;;;;;;;;;;;21.97;59.73;98348.06;4208625;28;19917;-71
2022/06/25 08:41:38;;;;;;;;;;;;;;;21.85;58.50;98348.94;4214851;28;19920;-71
2022/06/25 08:43:40;;;;;;;;;;;;;;;22.00;59.19;98341.50;4213621;28;20291;-71
2022/06/25 08:45:40;;;;;;;;;;;;;;;21.92;58.49;98345.81;4218518;28;19919;-71
2022/06/25 08:47:41;;;;;;;;;;;;;;;22.09;59.01;98340.81;4214854;28;19918;-71
2022/06/25 08:49:42;;;;;;;;;;;;;;;22.38;57.97;98340.53;4214610;28;19923;-71
2022/06/25 08:51:43;;;;;;;;;;;;;;;22.51;58.56;98340.44;4210757;28;20251;-71
2022/06/25 08:53:44;;;;;;;;;;;;;;;22.58;57.79;98346.59;4210027;28;19923;-71
2022/06/25 08:55:45;;;;;;;;;;;;;;;22.35;58.31;98341.47;4218680;28;20393;-71
2022/06/25 08:57:46;;;;;;;;;;;;;;;22.29;58.77;98343.31;4212807;28;19916;-71
2022/06/25 08:59:46;;;;;;;;;;;;;;;22.18;58.64;98342.91;4218747;28;19931;-71
2022/06/25 09:01:46;;;;;;;;;;;;;;;22.12;58.66;98348.38;4207931;28;20522;-71
2022/06/25 09:03:46;;;;;;;;;;;;;;;22.04;58.38;98335.75;4212889;28;20392;-71
2022/06/25 09:05:47;;;;;;;;;;;;;;;22.19;58.87;98336.06;4213396;28;19920;-71
2022/06/25 09:07:57;;;;;;;;;;;;;;;22.45;58.81;98333.84;4211687;28;19920;-71
2022/06/25 09:09:57;;;;;;;;;;;;;;;22.77;59.19;98336.19;4213367;28;19967;-71
2022/06/25 09:12:05;;;;;;;;;;;;;;;23.00;56.77;98329.22;4208934;28;20030;-71
2022/06/25 09:14:22;;;;;;;;;;;;;;;23.20;56.29;98326.78;4212421;28;20007;-71
2022/06/25 09:16:24;;;;;;;;;;;;;;;23.25;54.67;98328.19;4207082;28;20175;-71
2022/06/25 09:18:24;;;;;;;;;;;;;;;23.33;54.93;98326.66;4211758;28;19923;-71
2022/06/25 09:20:24;;;;;;;;;;;;;;;23.22;54.24;98321.47;4207136;28;20271;-71
2022/06/25 09:22:26;;;;;;;;;;;;;;;23.41;53.66;98322.25;4208604;28;19927;-71
2022/06/25 09:24:45;;;;;;;;;;;;;;;23.15;52.64;98313.28;4209691;28;19969;-71
2022/06/25 09:26:52;;;;;;;;;;;;;;;23.30;52.72;98315.50;4207542;28;19923;-71
2022/06/25 09:28:52;;;;;;;;;;;;;;;23.53;51.84;98312.88;4207890;28;19955;-71
2022/06/25 09:30:53;;;;;;;;;;;;;;;23.70;51.87;98319.03;4208777;28;20168;-71
2022/06/25 09:32:55;;;;;;;;;;;;;;;23.25;50.89;98319.72;4206417;28;19923;-71
2022/06/25 09:34:55;;;;;;;;;;;;;;;23.19;50.73;98318.78;4207362;28;20072;-71
2022/06/25 09:36:55;;;;;;;;;;;;;;;22.89;51.19;98326.84;4208537;27;20308;-71
2022/06/25 09:38:56;;;;;;;;;;;;;;;23.00;51.77;98315.13;4213154;28;19916;-71
2022/06/25 09:40:57;;;;;;;;;;;;;;;23.33;51.66;98315.34;4218388;28;20356;-71
2022/06/25 09:42:58;;;;;;;;;;;;;;;23.67;50.95;98313.56;4217938;28;20402;-71
2022/06/25 09:45:05;;;;;;;;;;;;;;;23.74;50.28;98321.69;4211230;28;20079;-71
2022/06/25 09:47:06;;;;;;;;;;;;;;;23.87;49.42;98313.84;4206858;28;19916;-71
2022/06/25 09:49:21;;;;;;;;;;;;;;;23.87;48.94;98316.66;4217856;28;20110;-71
2022/06/25 09:51:26;;;;;;;;;;;;;;;23.87;49.42;98327.97;4216980;28;19920;-71
2022/06/25 09:53:26;;;;;;;;;;;;;;;23.87;48.37;98315.88;4214210;28;19915;-71
2022/06/25 09:55:28;;;;;;;;;;;;;;;24.00;50.03;98311.66;4214005;28;20382;-71
2022/06/25 09:57:30;;;;;;;;;;;;;;;24.17;50.91;98316.97;4208285;28;20308;-71
2022/06/25 09:59:31;;;;;;;;;;;;;;;24.28;50.13;98320.06;4213120;28;19930;-71
2022/06/25 10:01:32;;;;;;;;;;;;;;;24.15;48.92;98313.81;4212521;28;20014;-71
2022/06/25 10:03:33;;;;;;;;;;;;;;;24.24;49.03;98319.44;4215870;28;19919;-71
2022/06/25 10:05:37;;;;;;;;;;;;;;;24.40;48.72;98312.69;4210325;28;19911;-71
2022/06/25 10:09:56;;;;;;;;;;;;;;;24.52;48.17;98306.06;4208225;28;19927;-71
2022/06/25 10:11:57;;;;;;;;;;;;;;;24.50;48.20;98317.06;4214711;28;19916;-71
2022/06/25 10:13:57;;;;;;;;;;;;;;;24.05;48.04;98311.00;4212056;28;19927;-71
2022/06/25 10:15:57;;;;;;;;;;;;;;;24.02;48.22;98311.94;4210055;28;19918;-71
2022/06/25 10:18:00;;;;;;;;;;;;;;;24.12;48.40;98309.09;4213983;28;20232;-71
2022/06/25 10:20:02;;;;;;;;;;;;;;;24.12;47.98;98314.75;4204287;28;19923;-71
2022/06/25 10:22:03;;;;;;;;;;;;;;;24.18;48.04;98316.47;4216191;28;20160;-71
2022/06/25 10:24:04;;;;;;;;;;;;;;;24.45;48.31;98304.34;4211401;28;19935;-71
2022/06/25 10:26:05;;;;;;;;;;;;;;;24.48;46.96;98297.72;4208179;28;19944;-71
2022/06/25 10:28:07;;;;;;;;;;;;;;;24.84;47.91;98299.63;4213139;28;19924;-71
2022/06/25 10:30:08;;;;;;;;;;;;;;;25.17;46.13;98299.63;4210579;28;19927;-71
2022/06/25 10:32:12;;;;;;;;;;;;;;;24.86;45.41;98299.16;4209363;28;19912;-71
2022/06/25 10:34:13;;;;;;;;;;;;;;;25.13;47.16;98301.06;4209023;28;20015;-71
2022/06/25 10:36:13;;;;;;;;;;;;;;;25.35;45.44;98298.72;4213634;27;19943;-71
2022/06/25 10:38:18;;;;;;;;;;;;;;;25.45;45.63;98299.44;4207065;28;19920;-71
2022/06/25 10:40:18;;;;;;;;;;;;;;;25.68;45.17;98304.28;4216755;28;19912;-71
2022/06/25 10:44:38;;;;;;;;;;;;;;;25.77;45.28;98294.97;4208174;28;19965;-71
2022/06/25 10:46:40;;;;;;;;;;;;;;;25.71;43.30;98300.50;4217681;28;20288;-71